createdAt,value
2022-08-17T00:02:25.494Z,98516.72
2022-08-17T00:05:31.538Z,98513.72
2022-08-17T00:08:39.427Z,98521.22
2022-08-17T00:11:44.067Z,98510.66
2022-08-17T00:15:06.691Z,98503.84
2022-08-17T00:19:02.099Z,98512.22
2022-08-17T00:22:30.842Z,98511.38
2022-08-17T00:24:59.338Z,98503.22
2022-08-17T00:28:02.099Z,98504.25
2022-08-17T00:31:04.112Z,98505.34
2022-08-17T00:34:08.733Z,98505.34
2022-08-17T00:37:10.436Z,98507.47
2022-08-17T00:40:15.172Z,98492.84
2022-08-17T00:43:39.801Z,98498.25
2022-08-17T00:46:43.774Z,98500.38
2022-08-17T00:49:45.606Z,98507.38
2022-08-17T00:52:54.956Z,98510.59
2022-08-17T00:55:59.301Z,98511.91
2022-08-17T00:59:02.600Z,98520.56
2022-08-17T01:02:06.303Z,98505.91
2022-08-17T01:05:09.370Z,98509.88
2022-08-17T01:08:14.995Z,98519.09
2022-08-17T01:11:17.223Z,98520.69
2022-08-17T01:14:21.477Z,98522.25
2022-08-17T01:17:23.222Z,98517.03
2022-08-17T01:20:25.160Z,98510.72
2022-08-17T01:23:28.836Z,98505.84
2022-08-17T01:26:33.085Z,98505.53
2022-08-17T01:29:36.844Z,98516.03
2022-08-17T01:32:39.327Z,98516.28
2022-08-17T01:35:41.026Z,98520.56
2022-08-17T01:38:42.747Z,98519.19
2022-08-17T01:41:46.489Z,98528.69
2022-08-17T01:44:49.493Z,98525.69
2022-08-17T01:47:52.286Z,98521.31
2022-08-17T01:50:54.587Z,98528.59
2022-08-17T01:54:00.296Z,98531.09
2022-08-17T01:57:02.586Z,98529.69
2022-08-17T02:00:09.518Z,98531.03
2022-08-17T02:03:13.025Z,98527.72
2022-08-17T02:06:28.077Z,98526.09
2022-08-17T02:09:31.644Z,98524.72
2022-08-17T02:12:39.149Z,98527.66
2022-08-17T02:15:41.527Z,98527.91
2022-08-17T02:18:43.428Z,98528.59
2022-08-17T02:21:52.086Z,98526.91
2022-08-17T02:24:58.865Z,98525.69
2022-08-17T02:28:04.236Z,98526.31
2022-08-17T02:31:08.826Z,98522.47
2022-08-17T02:34:10.979Z,98526.97
2022-08-17T02:37:13.194Z,98530.94
2022-08-17T02:40:15.720Z,98525.69
2022-08-17T02:43:30.318Z,98523.38
2022-08-17T02:46:32.449Z,98521.41
2022-08-17T02:49:34.244Z,98529.63
2022-08-17T02:52:43.831Z,98524.78
2022-08-17T02:55:45.904Z,98530.50
2022-08-17T02:58:47.616Z,98527.81
2022-08-17T03:01:49.446Z,98522.41
2022-08-17T03:04:51.198Z,98521.31
2022-08-17T03:07:52.999Z,98524.53
2022-08-17T03:10:55.091Z,98528.53
2022-08-17T03:13:57.450Z,98532.56
2022-08-17T03:16:59.376Z,98528.22
2022-08-17T03:20:01.274Z,98542.22
2022-08-17T03:23:04.008Z,98533.38
2022-08-17T03:26:12.386Z,98528.38
2022-08-17T03:29:19.246Z,98526.91
2022-08-17T03:32:21.365Z,98537.94
2022-08-17T03:35:25.688Z,98533.13
2022-08-17T03:38:27.526Z,98531.25
2022-08-17T03:41:29.246Z,98533.94
2022-08-17T03:44:30.985Z,98531.25
2022-08-17T03:47:51.305Z,98532.31
2022-08-17T03:51:14.789Z,98537.94
2022-08-17T03:54:35.597Z,98551.44
2022-08-17T03:57:37.805Z,98540.31
2022-08-17T04:00:40.506Z,98542.44
2022-08-17T04:03:42.251Z,98538.44
2022-08-17T04:06:44.923Z,98539.00
2022-08-17T04:09:47.134Z,98535.91
2022-08-17T04:12:54.622Z,98536.31
2022-08-17T04:15:57.331Z,98531.06
2022-08-17T04:18:59.074Z,98535.81
2022-08-17T04:22:00.970Z,98540.66
2022-08-17T04:25:17.015Z,98537.47
2022-08-17T04:28:20.025Z,98541.41
2022-08-17T04:31:21.822Z,98535.94
2022-08-17T04:34:25.122Z,98537.75
2022-08-17T04:37:27.001Z,98541.16
2022-08-17T04:40:47.400Z,98539.63
2022-08-17T04:43:50.698Z,98544.09
2022-08-17T04:46:52.435Z,98545.75
2022-08-17T04:49:54.177Z,98548.31
2022-08-17T04:52:56.214Z,98548.22
2022-08-17T04:55:59.139Z,98552.97
2022-08-17T04:59:04.326Z,98546.38
2022-08-17T05:02:06.027Z,98548.13
2022-08-17T05:05:08.173Z,98554.94
2022-08-17T05:08:11.219Z,98551.72
2022-08-17T05:11:13.820Z,98553.41
2022-08-17T05:14:15.933Z,98552.06
2022-08-17T05:17:17.647Z,98555.44
2022-08-17T05:20:19.373Z,98560.97
2022-08-17T05:23:23.694Z,98562.84
2022-08-17T05:26:27.720Z,98555.88
2022-08-17T05:29:35.295Z,98553.63
2022-08-17T05:32:40.359Z,98550.50
2022-08-17T05:35:47.079Z,98556.13
2022-08-17T05:38:48.831Z,98564.22
2022-08-17T05:41:50.624Z,98562.34
2022-08-17T05:44:52.889Z,98564.88
2022-08-17T05:47:54.665Z,98565.22
2022-08-17T05:51:11.885Z,98565.63
2022-08-17T05:54:48.718Z,98567.00
2022-08-17T05:58:05.658Z,98564.56
2022-08-17T06:01:29.271Z,98559.66
2022-08-17T06:04:55.837Z,98552.00
2022-08-17T06:08:07.548Z,98550.03
2022-08-17T06:11:20.888Z,98556.72
2022-08-17T06:14:53.470Z,98554.16
2022-08-17T06:18:01.586Z,98551.63
2022-08-17T06:21:07.153Z,98559.44
2022-08-17T06:24:17.643Z,98559.03
2022-08-17T06:27:55.779Z,98555.56
2022-08-17T06:31:03.246Z,98555.03
2022-08-17T06:34:09.599Z,98565.81
2022-08-17T06:37:29.585Z,98569.09
2022-08-17T06:41:05.329Z,98563.78
2022-08-17T06:44:44.748Z,98558.88
2022-08-17T06:47:46.725Z,98562.25
2022-08-17T06:50:54.710Z,98563.22
2022-08-17T06:54:11.666Z,98566.34
2022-08-17T06:57:16.654Z,98566.81
2022-08-17T07:00:26.490Z,98567.06
2022-08-17T07:03:37.786Z,98564.69
2022-08-17T07:07:00.757Z,98563.84
2022-08-17T07:10:02.674Z,98564.66
2022-08-17T07:13:22.917Z,98570.97
2022-08-17T07:16:32.475Z,98568.91
2022-08-17T07:19:40.564Z,98571.28
2022-08-17T07:22:53.570Z,98565.41
2022-08-17T07:26:06.809Z,98560.31
2022-08-17T07:29:10.264Z,98563.06
2022-08-17T07:32:18.466Z,98565.31
2022-08-17T07:35:37.942Z,98558.16
2022-08-17T07:38:56.641Z,98566.50
2022-08-17T07:42:05.103Z,98566.91
2022-08-17T07:45:27.685Z,98562.78
2022-08-17T07:48:29.423Z,98564.16
2022-08-17T07:51:40.726Z,98560.50
2022-08-17T07:54:43.077Z,98555.97
2022-08-17T07:57:55.682Z,98559.00
2022-08-17T08:01:08.086Z,98553.13
2022-08-17T08:07:57.247Z,98552.56
2022-08-17T08:11:07.153Z,98545.63
2022-08-17T08:14:34.030Z,98542.41
2022-08-17T08:17:50.089Z,98550.06
2022-08-17T08:20:55.427Z,98539.47
2022-08-17T08:24:22.622Z,98530.53
2022-08-17T08:28:01.602Z,98537.41
2022-08-17T08:31:20.638Z,98533.56
2022-08-17T08:35:02.217Z,98533.34
2022-08-17T08:38:28.580Z,98536.56
2022-08-17T08:41:50.454Z,98543.72
2022-08-17T08:44:59.926Z,98539.03
2022-08-17T08:48:53.043Z,98542.03
2022-08-17T08:51:58.537Z,98544.56
2022-08-17T08:55:35.505Z,98533.22
2022-08-17T08:58:51.225Z,98531.69
2022-08-17T09:02:19.994Z,98531.28
2022-08-17T09:05:42.727Z,98529.22
2022-08-17T09:09:04.282Z,98534.03
2022-08-17T09:12:13.988Z,98529.72
2022-08-17T09:15:22.048Z,98532.44
2022-08-17T09:19:01.044Z,98531.97
2022-08-17T09:22:24.968Z,98540.63
2022-08-17T09:25:31.325Z,98546.38
2022-08-17T09:28:36.684Z,98540.69
2022-08-17T09:31:57.922Z,98538.75
2022-08-17T09:35:05.907Z,98532.47
2022-08-17T09:38:23.201Z,98533.34
2022-08-17T09:41:40.016Z,98536.31
2022-08-17T09:45:07.852Z,98539.81
2022-08-17T09:48:25.424Z,98546.16
2022-08-17T09:51:40.173Z,98522.38
2022-08-17T09:54:42.486Z,98523.91
2022-08-17T09:57:49.434Z,98521.59
2022-08-17T10:00:57.804Z,98521.94
2022-08-17T10:04:23.774Z,98510.59
2022-08-17T10:07:41.125Z,98507.84
2022-08-17T10:11:07.848Z,98510.94
2022-08-17T10:14:37.747Z,98520.94
2022-08-17T10:18:10.724Z,98512.00
2022-08-17T10:21:34.140Z,98512.78
2022-08-17T10:25:22.286Z,98505.25
2022-08-17T10:28:39.509Z,98501.63
2022-08-17T10:31:50.388Z,98498.81
2022-08-17T10:34:58.198Z,98492.34
2022-08-17T10:37:59.856Z,98503.44
2022-08-17T10:41:15.732Z,98496.03
2022-08-17T10:44:41.207Z,98494.25
2022-08-17T10:48:04.318Z,98492.63
2022-08-17T10:51:12.810Z,98490.53
2022-08-17T10:54:45.563Z,98494.09
2022-08-17T10:57:50.203Z,98488.56
2022-08-17T11:00:52.447Z,98486.81
2022-08-17T11:03:57.564Z,98481.53
2022-08-17T11:07:08.194Z,98482.63
2022-08-17T11:10:13.469Z,98482.00
2022-08-17T11:13:44.986Z,98481.53
2022-08-17T11:16:58.816Z,98475.66
2022-08-17T11:20:28.346Z,98476.09
2022-08-17T11:23:30.051Z,98466.03
2022-08-17T11:26:35.115Z,98461.16
2022-08-17T11:30:06.374Z,98465.38
2022-08-17T11:33:29.758Z,98465.44
2022-08-17T11:37:04.237Z,98457.53
2022-08-17T11:40:38.586Z,98457.91
2022-08-17T11:43:59.117Z,98451.84
2022-08-17T11:47:53.027Z,98449.84
2022-08-17T11:51:34.998Z,98441.78
2022-08-17T11:54:46.569Z,98448.63
2022-08-17T11:58:01.543Z,98442.09
2022-08-17T12:01:22.666Z,98443.22
2022-08-17T12:04:31.686Z,98437.66
2022-08-17T12:07:42.048Z,98422.09
2022-08-17T12:11:19.004Z,98427.13
2022-08-17T12:18:19.126Z,98420.56
2022-08-17T12:21:23.710Z,98432.13
2022-08-17T12:24:36.811Z,98418.44
2022-08-17T12:28:04.765Z,98420.22
2022-08-17T12:31:15.932Z,98418.41
2022-08-17T12:34:21.837Z,98407.50
2022-08-17T12:37:31.593Z,98407.22
2022-08-17T12:40:33.503Z,98400.72
2022-08-17T12:43:35.266Z,98395.97
2022-08-17T12:46:56.396Z,98398.31
2022-08-17T12:50:29.207Z,98402.03
2022-08-17T12:53:35.455Z,98404.75
2022-08-17T12:56:37.393Z,98405.34
2022-08-17T12:59:50.476Z,98399.59
2022-08-17T13:02:58.200Z,98404.03
2022-08-17T13:06:01.598Z,98398.91
2022-08-17T13:09:19.212Z,98399.00
2022-08-17T13:12:33.898Z,98399.66
2022-08-17T13:15:51.680Z,98394.41
2022-08-17T13:19:08.956Z,98393.91
2022-08-17T13:22:12.935Z,98395.38
2022-08-17T13:25:16.964Z,98395.00
2022-08-17T13:28:30.646Z,98388.00
2022-08-17T13:31:51.821Z,98388.97
2022-08-17T13:35:12.031Z,98380.31
2022-08-17T13:38:53.267Z,98382.31
2022-08-17T13:41:56.096Z,98373.25
2022-08-17T13:44:59.044Z,98374.47
2022-08-17T13:48:30.182Z,98375.50
2022-08-17T13:51:42.466Z,98364.56
2022-08-17T13:54:51.321Z,98371.75
2022-08-17T13:58:06.762Z,98363.66
2022-08-17T14:01:53.162Z,98367.78
2022-08-17T14:04:57.306Z,98365.91
2022-08-17T14:08:06.978Z,98367.72
2022-08-17T14:11:09.015Z,98372.28
2022-08-17T14:14:13.510Z,98371.41
2022-08-17T14:17:15.364Z,98378.50
2022-08-17T14:20:20.081Z,98373.84
2022-08-17T14:23:21.833Z,98365.66
2022-08-17T14:26:23.809Z,98359.94
2022-08-17T14:29:28.209Z,98373.25
2022-08-17T14:32:33.147Z,98368.22
2022-08-17T14:35:35.024Z,98356.75
2022-08-17T14:38:37.903Z,98361.47
2022-08-17T14:41:41.390Z,98352.84
2022-08-17T14:44:43.162Z,98354.81
2022-08-17T14:47:44.995Z,98359.06
2022-08-17T14:50:46.769Z,98358.16
2022-08-17T14:53:49.503Z,98365.41
2022-08-17T14:56:51.371Z,98368.47
2022-08-17T15:00:13.844Z,98368.00
2022-08-17T15:03:17.141Z,98359.34
2022-08-17T15:06:18.907Z,98363.22
2022-08-17T15:09:20.671Z,98362.63
2022-08-17T15:12:26.443Z,98367.91
2022-08-17T15:15:34.218Z,98364.69
2022-08-17T15:18:36.612Z,98366.66
2022-08-17T15:21:38.386Z,98358.31
2022-08-17T15:24:40.101Z,98360.00
2022-08-17T15:27:42.555Z,98352.94
2022-08-17T15:30:45.230Z,98357.13
2022-08-17T15:33:46.968Z,98351.06
2022-08-17T15:36:49.471Z,98362.13
2022-08-17T15:39:51.844Z,98353.47
2022-08-17T15:42:54.295Z,98352.81
2022-08-17T15:46:20.453Z,98361.03
2022-08-17T15:49:22.619Z,98360.19
2022-08-17T15:52:26.613Z,98353.75
2022-08-17T15:55:30.609Z,98364.03
2022-08-17T15:58:34.033Z,98360.44
2022-08-17T16:03:01.639Z,98362.28
2022-08-17T16:05:11.160Z,98368.63
2022-08-17T16:08:20.699Z,98361.31
2022-08-17T16:11:23.067Z,98357.13
2022-08-17T16:14:33.652Z,98371.13
2022-08-17T16:17:38.851Z,98363.03
2022-08-17T16:20:43.452Z,98362.81
2022-08-17T16:23:46.251Z,98360.94
2022-08-17T16:26:48.113Z,98362.13
2022-08-17T16:29:52.032Z,98368.56
2022-08-17T16:32:59.809Z,98361.50
2022-08-17T16:36:01.542Z,98363.72
2022-08-17T16:39:03.531Z,98369.91
2022-08-17T16:42:26.344Z,98371.25
2022-08-17T16:45:36.351Z,98374.38
2022-08-17T16:48:38.135Z,98377.09
2022-08-17T16:51:40.272Z,98375.63
2022-08-17T16:54:44.446Z,98368.84
2022-08-17T16:57:50.239Z,98373.38
2022-08-17T17:00:52.534Z,98377.75
2022-08-17T17:03:58.999Z,98369.66
2022-08-17T17:07:16.800Z,98375.75
2022-08-17T17:10:35.949Z,98376.00
2022-08-17T17:13:44.426Z,98378.97
2022-08-17T17:17:06.140Z,98380.41
2022-08-17T17:20:21.741Z,98380.41
2022-08-17T17:23:34.326Z,98383.81
2022-08-17T17:26:53.503Z,98374.75
2022-08-17T17:30:25.184Z,98375.34
2022-08-17T17:33:40.385Z,98371.59
2022-08-17T17:36:46.230Z,98371.53
2022-08-17T17:39:51.887Z,98380.22
2022-08-17T17:43:00.038Z,98385.00
2022-08-17T17:46:39.888Z,98387.13
2022-08-17T17:49:44.150Z,98386.03
2022-08-17T17:52:48.440Z,98387.50
2022-08-17T17:56:29.665Z,98387.03
2022-08-17T17:59:54.168Z,98390.22
2022-08-17T18:03:17.552Z,98391.50
2022-08-17T18:06:46.509Z,98397.97
2022-08-17T18:09:50.971Z,98403.59
2022-08-17T18:13:10.192Z,98404.47
2022-08-17T18:16:14.112Z,98416.91
2022-08-17T18:19:21.257Z,98413.28
2022-08-17T18:22:23.940Z,98406.59
2022-08-17T18:25:49.692Z,98411.88
2022-08-17T18:28:52.868Z,98400.16
2022-08-17T18:32:20.502Z,98406.22
2022-08-17T18:35:28.271Z,98410.34
2022-08-17T18:38:37.326Z,98410.63
2022-08-17T18:41:45.471Z,98413.56
2022-08-17T18:44:49.581Z,98413.50
2022-08-17T18:47:55.465Z,98415.88
2022-08-17T18:51:02.141Z,98420.16
2022-08-17T18:54:22.554Z,98432.97
2022-08-17T18:57:55.600Z,98438.50
2022-08-17T19:00:57.405Z,98427.84
2022-08-17T19:03:59.786Z,98428.06
2022-08-17T19:07:08.139Z,98434.94
2022-08-17T19:10:24.567Z,98432.94
2022-08-17T19:13:32.529Z,98434.75
2022-08-17T19:16:43.372Z,98423.19
2022-08-17T19:20:05.189Z,98425.91
2022-08-17T19:23:23.775Z,98434.09
2022-08-17T19:26:53.474Z,98432.66
2022-08-17T19:29:50.850Z,98429.19
2022-08-17T19:32:53.141Z,98431.03
2022-08-17T19:36:25.680Z,98427.03
2022-08-17T19:39:40.248Z,98423.88
2022-08-17T19:42:53.324Z,98416.34
2022-08-17T19:46:07.683Z,98412.63
2022-08-17T19:49:33.770Z,98408.97
2022-08-17T19:53:13.866Z,98414.59
2022-08-17T19:56:37.501Z,98422.06
2022-08-17T20:00:05.000Z,98421.38
2022-08-17T20:03:25.494Z,98425.31
2022-08-17T20:06:32.993Z,98425.38
2022-08-17T20:09:39.002Z,98423.84
2022-08-17T20:12:44.567Z,98425.47
2022-08-17T20:15:46.943Z,98418.97
2022-08-17T20:19:12.494Z,98426.69
2022-08-17T20:22:50.352Z,98421.81
2022-08-17T20:25:59.283Z,98421.06
2022-08-17T20:29:14.855Z,98422.47
2022-08-17T20:32:26.152Z,98420.03
2022-08-17T20:35:38.360Z,98427.19
2022-08-17T20:38:47.761Z,98429.69
2022-08-17T20:42:21.896Z,98414.09
2022-08-17T20:45:24.311Z,98414.63
2022-08-17T20:48:38.655Z,98422.03
2022-08-17T20:52:07.739Z,98436.25
2022-08-17T20:55:51.791Z,98447.19
2022-08-17T20:58:54.523Z,98453.75
2022-08-17T21:02:06.659Z,98473.00
2022-08-17T21:05:59.737Z,98473.81
2022-08-17T21:09:15.680Z,98469.81
2022-08-17T21:12:50.189Z,98471.63
2022-08-17T21:16:00.661Z,98491.63
2022-08-17T21:20:00.245Z,98482.56
2022-08-17T21:23:22.631Z,98497.38
2022-08-17T21:26:38.939Z,98501.78
2022-08-17T21:30:01.769Z,98510.03
2022-08-17T21:33:16.924Z,98510.63
2022-08-17T21:36:24.320Z,98510.69
2022-08-17T21:39:39.342Z,98499.28
2022-08-17T21:42:52.746Z,98501.47
2022-08-17T21:46:02.207Z,98495.81
2022-08-17T21:49:13.848Z,98495.00
2022-08-17T21:52:19.890Z,98483.56
2022-08-17T21:55:24.442Z,98480.84
2022-08-17T21:58:33.319Z,98478.16
2022-08-17T22:01:40.215Z,98488.53
2022-08-17T22:04:43.100Z,98493.44
2022-08-17T22:07:50.905Z,98504.91
2022-08-17T22:11:01.144Z,98501.91
2022-08-17T22:14:05.992Z,98495.63
2022-08-17T22:17:34.363Z,98495.94
2022-08-17T22:20:36.217Z,98498.66
2022-08-17T22:23:59.769Z,98489.09
2022-08-17T22:27:12.946Z,98488.81
2022-08-17T22:30:19.854Z,98493.22
2022-08-17T22:33:33.605Z,98492.97
2022-08-17T22:36:40.458Z,98488.06
2022-08-17T22:39:42.428Z,98490.28
2022-08-17T22:42:49.787Z,98499.78
2022-08-17T22:45:54.563Z,98489.16
2022-08-17T22:48:59.464Z,98489.16
2022-08-17T22:52:05.172Z,98475.56
2022-08-17T22:55:33.247Z,98463.63
2022-08-17T22:59:00.272Z,98459.81
2022-08-17T23:02:23.139Z,98462.00
2022-08-17T23:05:25.503Z,98465.28
2022-08-17T23:08:27.259Z,98460.94
2022-08-17T23:11:42.831Z,98446.78
2022-08-17T23:14:58.426Z,98448.41
2022-08-17T23:18:04.869Z,98450.06
2022-08-17T23:21:07.705Z,98450.06
2022-08-17T23:24:10.868Z,98445.66
2022-08-17T23:27:12.727Z,98444.00
2022-08-17T23:30:14.523Z,98450.81
2022-08-17T23:33:21.344Z,98441.84
2022-08-17T23:36:23.685Z,98430.97
2022-08-17T23:39:28.185Z,98435.31
2022-08-17T23:42:30.174Z,98431.78
2022-08-17T23:45:32.142Z,98424.16
2022-08-17T23:48:36.694Z,98420.91
2022-08-17T23:51:43.925Z,98410.28
2022-08-17T23:54:47.348Z,98395.31
2022-08-17T23:57:49.325Z,98398.28
